Time;durP1;ratioP1;P1;durP2;ratioP2;P2;SDS_P1;SDS_P2;PMS_P1;PMS_P2;Temp;Humidity;BMP_temperature;BMP_pressure;BME280_temperature;BME280_humidity;BME280_pressure;Samples;Min_cycle;Max_cycle;Signal;HPM_P1;HPM_P2
2023/02/06 00:00:48;;;;;;;30.57;6.00;;;5.00;99.90;;;;;;5094814;28;20201;-76
2023/02/06 00:03:15;;;;;;;35.05;6.63;;;5.00;99.90;;;;;;5094868;28;20517;-76
2023/02/06 00:05:42;;;;;;;36.40;6.70;;;5.00;99.90;;;;;;5095071;28;20189;-75
2023/02/06 00:08:09;;;;;;;31.47;5.70;;;5.00;99.90;;;;;;5094858;28;20574;-76
2023/02/06 00:10:37;;;;;;;32.50;5.60;;;5.10;99.90;;;;;;5095100;28;20683;-75
2023/02/06 00:13:05;;;;;;;30.93;6.70;;;5.00;99.90;;;;;;5094256;28;20189;-76
2023/02/06 00:15:33;;;;;;;32.97;6.90;;;4.70;99.90;;;;;;5093468;28;20692;-77
2023/02/06 00:18:00;;;;;;;29.17;6.20;;;4.70;99.90;;;;;;5094759;28;20216;-80
2023/02/06 00:20:28;;;;;;;32.03;6.13;;;4.60;99.90;;;;;;5093894;28;20220;-78
2023/02/06 00:22:56;;;;;;;28.13;5.77;;;4.50;99.90;;;;;;5094136;28;20202;-80
2023/02/06 00:25:23;;;;;;;30.00;5.47;;;4.60;99.90;;;;;;5095389;28;20205;-77
2023/02/06 00:27:52;;;;;;;28.77;6.37;;;4.60;99.90;;;;;;5093516;28;20205;-76
2023/02/06 00:30:19;;;;;;;31.67;6.03;;;4.60;99.90;;;;;;5093604;28;20201;-79
2023/02/06 00:32:46;;;;;;;29.87;6.40;;;4.50;99.90;;;;;;5095379;28;20208;-78
2023/02/06 00:35:13;;;;;;;45.40;6.57;;;4.30;99.90;;;;;;5095446;28;20213;-78
2023/02/06 00:37:40;;;;;;;27.70;6.40;;;4.40;99.90;;;;;;5095501;28;20206;-76
2023/02/06 00:40:10;;;;;;;43.33;6.43;;;4.40;99.90;;;;;;5095493;28;20291;-76
2023/02/06 00:42:37;;;;;;;34.47;6.33;;;4.30;99.90;;;;;;5093338;28;20197;-77
2023/02/06 00:45:07;;;;;;;29.13;5.63;;;4.40;99.90;;;;;;5094110;28;20201;-78
2023/02/06 00:47:34;;;;;;;23.77;5.70;;;4.20;99.90;;;;;;5095318;28;20185;-77
2023/02/06 00:50:01;;;;;;;38.90;6.60;;;4.20;99.90;;;;;;5095035;28;20193;-77
2023/02/06 00:52:28;;;;;;;33.97;6.97;;;4.40;99.90;;;;;;5093771;28;20209;-77
2023/02/06 00:54:55;;;;;;;30.10;6.23;;;4.50;99.90;;;;;;5097383;28;20201;-76
2023/02/06 00:57:22;;;;;;;28.03;5.57;;;4.50;99.90;;;;;;5096315;28;20566;-79
2023/02/06 00:59:48;;;;;;;32.63;5.77;;;4.70;99.90;;;;;;5098095;28;20205;-77
2023/02/06 01:02:19;;;;;;;31.83;6.13;;;4.70;99.90;;;;;;5100228;28;20213;-78
2023/02/06 01:04:46;;;;;;;40.23;6.70;;;4.70;99.90;;;;;;5099541;28;20205;-77
2023/02/06 01:07:13;;;;;;;28.23;6.07;;;4.70;99.90;;;;;;5100720;28;20212;-76
2023/02/06 01:09:39;;;;;;;29.97;6.47;;;4.80;99.90;;;;;;5100475;28;20217;-78
2023/02/06 01:12:07;;;;;;;36.40;6.70;;;4.80;99.90;;;;;;5097637;28;20278;-76
2023/02/06 01:14:34;;;;;;;35.43;6.80;;;4.90;99.90;;;;;;5098057;28;20631;-75
2023/02/06 01:17:01;;;;;;;28.23;5.80;;;4.80;99.90;;;;;;5097839;28;20239;-78
2023/02/06 01:19:29;;;;;;;55.60;7.73;;;4.80;99.90;;;;;;5099104;28;20209;-78
2023/02/06 01:21:56;;;;;;;28.70;6.07;;;4.90;99.90;;;;;;5100045;28;20209;-79
2023/02/06 01:24:23;;;;;;;39.33;6.87;;;4.90;99.90;;;;;;5100392;28;20636;-77
2023/02/06 01:26:49;;;;;;;33.23;6.20;;;4.90;99.90;;;;;;5100062;28;20201;-76
2023/02/06 01:29:18;;;;;;;36.60;6.43;;;5.00;99.90;;;;;;5101316;28;20189;-76
2023/02/06 01:31:45;;;;;;;22.23;5.70;;;4.90;99.90;;;;;;5102287;28;20196;-75
2023/02/06 01:34:12;;;;;;;26.13;5.83;;;4.90;99.90;;;;;;5103036;28;20194;-78
2023/02/06 01:36:41;;;;;;;30.30;5.83;;;4.90;99.90;;;;;;5102776;28;20217;-75
2023/02/06 01:39:09;;;;;;;27.03;5.77;;;5.00;99.90;;;;;;5102436;28;20204;-77
2023/02/06 01:41:36;;;;;;;31.87;6.23;;;5.00;99.90;;;;;;5101820;28;20192;-76
2023/02/06 01:44:11;;;;;;;23.90;5.57;;;5.00;99.90;;;;;;5101529;28;20212;-75
2023/02/06 01:46:40;;;;;;;28.13;6.10;;;4.90;99.90;;;;;;5102660;28;20220;-77
2023/02/06 01:49:08;;;;;;;32.27;7.27;;;4.90;99.90;;;;;;5100856;28;20627;-76
2023/02/06 01:51:39;;;;;;;27.70;5.70;;;4.90;99.90;;;;;;5101189;28;20205;-77
2023/02/06 01:54:12;;;;;;;21.57;5.23;;;4.70;99.90;;;;;;5100996;28;20281;-79
2023/02/06 01:56:46;;;;;;;31.73;5.93;;;4.70;99.90;;;;;;5100997;28;20223;-77
2023/02/06 01:59:14;;;;;;;34.40;5.83;;;4.80;99.90;;;;;;5101155;28;20208;-76
2023/02/06 02:01:41;;;;;;;46.03;8.93;;;4.90;99.90;;;;;;5098741;28;20445;-75
2023/02/06 02:04:24;;;;;;;37.00;6.73;;;5.00;99.90;;;;;;5099185;28;20190;-79
2023/02/06 02:07:04;;;;;;;42.63;6.13;;;5.00;99.90;;;;;;5098857;28;20240;-75
2023/02/06 02:09:33;;;;;;;31.83;6.50;;;5.00;99.90;;;;;;5098050;28;20201;-76
2023/02/06 02:12:00;;;;;;;30.93;6.57;;;4.80;99.90;;;;;;5096841;28;20295;-76
2023/02/06 02:14:27;;;;;;;26.97;5.93;;;4.60;99.90;;;;;;5095836;28;20236;-76
2023/02/06 02:17:06;;;;;;;28.73;5.00;;;4.80;99.90;;;;;;5095175;28;20560;-79
2023/02/06 02:20:06;;;;;;;31.13;5.40;;;4.80;99.90;;;;;;5094990;28;20193;-79
2023/02/06 02:22:55;;;;;;;29.33;5.57;;;5.00;99.90;;;;;;5095252;28;20288;-77
2023/02/06 02:26:02;;;;;;;33.80;6.10;;;5.10;99.90;;;;;;5095331;28;20288;-77
2023/02/06 02:29:05;;;;;;;29.67;6.10;;;5.10;99.90;;;;;;5096330;28;20207;-80
2023/02/06 02:31:56;;;;;;;29.97;5.60;;;5.10;99.90;;;;;;5097186;28;20208;-78
2023/02/06 02:35:01;;;;;;;39.70;6.93;;;5.10;99.90;;;;;;5094235;28;20672;-76
2023/02/06 02:37:40;;;;;;;22.63;5.30;;;5.10;99.90;;;;;;5060426;28;20703;-78
2023/02/06 02:40:18;;;;;;;33.40;6.47;;;5.00;99.90;;;;;;5093701;28;20209;-76
2023/02/06 02:42:55;;;;;;;31.27;5.33;;;5.00;99.90;;;;;;5095678;28;20193;-78
2023/02/06 02:45:30;;;;;;;25.57;5.73;;;5.10;99.90;;;;;;5095169;28;20245;-77
2023/02/06 02:48:02;;;;;;;29.70;5.77;;;5.20;99.90;;;;;;5095072;28;20201;-76
2023/02/06 02:50:31;;;;;;;32.70;6.43;;;5.30;99.90;;;;;;5094535;28;20216;-76
2023/02/06 02:52:59;;;;;;;29.90;6.10;;;5.30;99.90;;;;;;5094861;28;20599;-76
2023/02/06 02:55:26;;;;;;;30.77;5.80;;;5.30;99.90;;;;;;5086220;28;20213;-77
2023/02/06 02:57:59;;;;;;;34.42;6.32;;;5.40;99.90;;;;;;5087939;28;20442;-78
2023/02/06 03:00:26;;;;;;;26.47;5.47;;;5.50;99.90;;;;;;5084024;28;20197;-76
2023/02/06 03:02:58;;;;;;;28.80;5.20;;;5.50;99.90;;;;;;5094385;28;20198;-76
2023/02/06 03:05:27;;;;;;;29.63;5.17;;;5.60;99.90;;;;;;5094243;28;20225;-80
2023/02/06 03:08:10;;;;;;;33.37;5.70;;;5.40;99.90;;;;;;5093450;28;20201;-76
2023/02/06 03:10:46;;;;;;;59.90;7.00;;;5.30;99.90;;;;;;5094440;28;20201;-78
2023/02/06 03:13:26;;;;;;;26.17;5.53;;;5.30;99.90;;;;;;5095783;28;20652;-77
2023/02/06 03:15:58;;;;;;;32.17;5.43;;;5.30;99.90;;;;;;5095834;28;20204;-77
2023/02/06 03:18:30;;;;;;;35.33;5.37;;;5.30;99.90;;;;;;5095367;28;20636;-76
2023/02/06 03:20:59;;;;;;;27.50;4.77;;;5.20;99.90;;;;;;5096275;28;20213;-79
2023/02/06 03:23:32;;;;;;;29.80;5.07;;;5.10;99.90;;;;;;5096912;28;20644;-78
2023/02/06 03:26:02;;;;;;;35.23;5.97;;;5.20;99.90;;;;;;5096761;28;20216;-79
2023/02/06 03:28:34;;;;;;;39.23;5.70;;;5.20;99.90;;;;;;5095357;28;20505;-76
2023/02/06 03:31:06;;;;;;;33.47;5.40;;;5.20;99.90;;;;;;5098485;28;20204;-78
2023/02/06 03:33:37;;;;;;;34.63;5.43;;;5.20;99.90;;;;;;5097964;28;20197;-77
2023/02/06 03:36:09;;;;;;;29.27;5.40;;;5.20;99.90;;;;;;5098263;28;20228;-76
2023/02/06 03:38:43;;;;;;;35.03;5.73;;;5.10;99.90;;;;;;5100264;28;20193;-77
2023/02/06 03:41:12;;;;;;;36.23;5.70;;;5.20;99.90;;;;;;5100907;28;20227;-75
2023/02/06 03:43:43;;;;;;;30.43;5.67;;;5.20;99.90;;;;;;5098302;28;20233;-80
2023/02/06 03:46:12;;;;;;;29.83;5.37;;;5.00;99.90;;;;;;5098166;28;20209;-76
2023/02/06 03:48:44;;;;;;;43.43;6.90;;;4.90;99.90;;;;;;5087440;28;20301;-77
2023/02/06 03:51:17;;;;;;;35.17;6.43;;;4.90;99.90;;;;;;5097428;28;20209;-77
2023/02/06 03:53:49;;;;;;;31.90;5.77;;;4.90;99.90;;;;;;5097642;28;20205;-78
2023/02/06 03:56:25;;;;;;;30.47;6.37;;;4.90;99.90;;;;;;5078102;28;20764;-77
2023/02/06 03:58:55;;;;;;;25.87;5.53;;;4.80;99.90;;;;;;5081239;28;20271;-79
2023/02/06 04:01:23;;;;;;;29.03;5.97;;;4.80;99.90;;;;;;5097135;28;20205;-77
2023/02/06 04:03:50;;;;;;;29.90;5.30;;;4.80;99.90;;;;;;5097819;28;20298;-79
2023/02/06 04:06:17;;;;;;;39.60;6.77;;;4.70;99.90;;;;;;5097494;28;20753;-75
2023/02/06 04:08:49;;;;;;;45.23;6.53;;;4.80;99.90;;;;;;5097919;28;20209;-76
2023/02/06 04:11:16;;;;;;;36.83;6.20;;;4.70;99.90;;;;;;5097484;28;20204;-77
2023/02/06 04:13:43;;;;;;;37.20;6.60;;;4.70;99.90;;;;;;5098456;28;20205;-77
2023/02/06 04:16:09;;;;;;;31.73;5.53;;;4.60;99.90;;;;;;5098968;28;20232;-78
2023/02/06 04:18:39;;;;;;;40.33;6.53;;;4.70;99.90;;;;;;5093609;28;20197;-76
2023/02/06 04:21:06;;;;;;;32.10;6.57;;;4.80;99.90;;;;;;5093599;28;20255;-77
2023/02/06 04:23:33;;;;;;;39.07;7.23;;;4.90;99.90;;;;;;5093867;28;20198;-76
2023/02/06 04:26:04;;;;;;;35.67;7.37;;;4.90;99.90;;;;;;5095378;28;20205;-75
2023/02/06 04:28:39;;;;;;;23.20;5.13;;;4.70;99.90;;;;;;5099128;28;20235;-76
2023/02/06 04:31:06;;;;;;;41.57;6.53;;;4.60;99.90;;;;;;5099043;28;20204;-77
2023/02/06 04:33:32;;;;;;;26.27;5.50;;;4.60;99.90;;;;;;5100877;28;20209;-75
2023/02/06 04:36:00;;;;;;;40.73;7.30;;;4.50;99.90;;;;;;5101758;28;20203;-80
2023/02/06 04:38:27;;;;;;;31.87;6.43;;;4.40;99.90;;;;;;5098491;28;20204;-76
2023/02/06 04:40:55;;;;;;;42.67;6.77;;;4.30;99.90;;;;;;5097193;28;20908;-76
2023/02/06 04:43:23;;;;;;;31.93;6.53;;;4.30;99.90;;;;;;5098583;28;20281;-77
2023/02/06 04:45:50;;;;;;;35.10;6.80;;;4.20;99.90;;;;;;5097671;28;20212;-76
2023/02/06 04:48:17;;;;;;;35.87;6.37;;;4.10;99.90;;;;;;5096463;28;20205;-76
2023/02/06 04:50:43;;;;;;;42.00;6.97;;;4.20;99.90;;;;;;5096389;28;20595;-75
2023/02/06 04:53:10;;;;;;;39.37;8.27;;;4.10;99.90;;;;;;5096974;28;20212;-77
2023/02/06 04:55:37;;;;;;;44.47;6.83;;;4.10;99.90;;;;;;5097640;28;20209;-79
2023/02/06 04:58:04;;;;;;;39.83;6.93;;;4.00;99.90;;;;;;5097023;28;20228;-77
2023/02/06 05:00:32;;;;;;;35.30;5.67;;;4.00;99.90;;;;;;5099333;28;20205;-75
2023/02/06 05:02:59;;;;;;;35.90;6.77;;;3.80;99.90;;;;;;5097600;28;20217;-78
2023/02/06 05:05:29;;;;;;;30.33;6.77;;;3.90;99.90;;;;;;5098755;28;20205;-76
2023/02/06 05:07:56;;;;;;;39.67;7.53;;;4.10;99.90;;;;;;5100908;28;20465;-76
2023/02/06 05:10:25;;;;;;;36.33;7.30;;;4.20;99.90;;;;;;5098669;28;20205;-78
2023/02/06 05:12:54;;;;;;;41.47;7.03;;;4.20;99.90;;;;;;5099752;28;20480;-76
2023/02/06 05:15:21;;;;;;;39.67;7.20;;;4.10;99.90;;;;;;5099917;28;20197;-80
2023/02/06 05:17:54;;;;;;;36.60;6.07;;;4.00;99.90;;;;;;5102322;28;20496;-78
2023/02/06 05:20:30;;;;;;;41.43;6.67;;;3.80;99.90;;;;;;5102163;28;20564;-78
2023/02/06 05:23:00;;;;;;;45.47;7.57;;;3.70;99.90;;;;;;5102531;28;20492;-81
2023/02/06 05:25:29;;;;;;;31.70;6.70;;;3.70;99.90;;;;;;5093137;28;20930;-77
2023/02/06 05:28:05;;;;;;;29.70;6.70;;;3.60;99.90;;;;;;5093606;28;20445;-82
2023/02/06 05:30:32;;;;;;;31.37;6.13;;;3.60;99.90;;;;;;5088328;28;20489;-82
2023/02/06 05:33:01;;;;;;;33.80;6.53;;;3.70;99.90;;;;;;5094432;28;20229;-84
2023/02/06 05:35:29;;;;;;;33.40;7.03;;;3.70;99.90;;;;;;5097847;28;20280;-78
2023/02/06 05:37:57;;;;;;;39.97;7.20;;;3.80;99.90;;;;;;5094493;28;20497;-76
2023/02/06 05:40:24;;;;;;;38.93;9.40;;;4.00;99.90;;;;;;5088593;28;20473;-77
2023/02/06 05:42:51;;;;;;;46.20;7.47;;;3.80;99.90;;;;;;5097550;28;20543;-75
2023/02/06 05:45:21;;;;;;;36.90;7.43;;;3.80;99.90;;;;;;5099914;28;20442;-75
2023/02/06 05:47:49;;;;;;;38.30;7.23;;;3.90;99.90;;;;;;5097699;28;20521;-76
2023/02/06 05:50:18;;;;;;;36.57;7.33;;;3.80;99.90;;;;;;5096720;28;20449;-77
2023/02/06 05:52:45;;;;;;;39.53;7.67;;;3.80;99.90;;;;;;5096284;28;20916;-76
2023/02/06 05:55:12;;;;;;;36.03;6.57;;;3.70;99.90;;;;;;5096581;28;20446;-76
2023/02/06 05:57:40;;;;;;;29.57;6.97;;;3.60;99.90;;;;;;5095033;28;20573;-75
2023/02/06 06:00:08;;;;;;;37.27;7.03;;;3.60;99.90;;;;;;5095354;28;20437;-75
2023/02/06 06:02:35;;;;;;;34.93;7.70;;;3.60;99.90;;;;;;5094240;28;20460;-75
2023/02/06 06:05:02;;;;;;;44.93;7.87;;;3.50;99.90;;;;;;5094859;28;20453;-80
2023/02/06 06:07:30;;;;;;;40.00;8.47;;;3.40;99.90;;;;;;5081613;28;20444;-76
2023/02/06 06:09:58;;;;;;;46.73;7.80;;;3.60;99.90;;;;;;5095832;28;20465;-76
2023/02/06 06:12:24;;;;;;;34.30;7.03;;;3.60;99.90;;;;;;5096347;28;20446;-75
2023/02/06 06:14:51;;;;;;;33.20;6.90;;;3.70;99.90;;;;;;5096003;28;20441;-75
2023/02/06 06:17:18;;;;;;;39.93;7.63;;;3.70;99.90;;;;;;5095052;28;20488;-75
2023/02/06 06:19:45;;;;;;;40.70;7.73;;;3.70;99.90;;;;;;5095970;28;20457;-75
2023/02/06 06:22:12;;;;;;;45.03;9.07;;;3.80;99.90;;;;;;5097899;28;20800;-74
2023/02/06 06:24:40;;;;;;;36.73;7.70;;;4.00;99.90;;;;;;5094253;28;20996;-77
2023/02/06 06:27:09;;;;;;;37.80;7.73;;;3.90;99.90;;;;;;5095032;28;20810;-76
2023/02/06 06:29:36;;;;;;;29.40;7.13;;;3.90;99.90;;;;;;5093886;28;20219;-75
2023/02/06 06:32:03;;;;;;;49.70;8.47;;;3.80;99.90;;;;;;5094030;28;20454;-75
2023/02/06 06:34:30;;;;;;;34.40;7.37;;;3.80;99.90;;;;;;5094387;28;20441;-75
2023/02/06 06:36:57;;;;;;;34.53;7.83;;;3.80;99.90;;;;;;5094037;28;20990;-78
2023/02/06 06:39:24;;;;;;;35.67;8.43;;;3.80;99.90;;;;;;5080362;28;20443;-75
2023/02/06 06:41:53;;;;;;;43.67;8.70;;;3.80;99.90;;;;;;5095246;28;20487;-76
2023/02/06 06:44:20;;;;;;;29.70;8.10;;;3.70;99.90;;;;;;5095017;28;20437;-77
2023/02/06 06:46:47;;;;;;;49.27;8.57;;;3.60;99.90;;;;;;5094601;28;20441;-78
2023/02/06 06:49:13;;;;;;;35.77;7.17;;;3.60;99.90;;;;;;5094416;28;20457;-76
2023/02/06 06:51:40;;;;;;;36.00;8.27;;;3.60;99.90;;;;;;5094497;28;20465;-80
2023/02/06 06:54:08;;;;;;;39.47;7.53;;;3.50;99.90;;;;;;5094493;28;20456;-77
2023/02/06 06:56:35;;;;;;;34.23;7.87;;;3.50;99.90;;;;;;5095373;28;20445;-78
2023/02/06 06:59:04;;;;;;;40.27;8.60;;;3.60;99.90;;;;;;5094503;28;20485;-76
2023/02/06 07:01:31;;;;;;;37.73;8.57;;;3.60;99.90;;;;;;5095344;28;20445;-76
2023/02/06 07:03:58;;;;;;;43.53;9.10;;;3.50;99.90;;;;;;5096437;28;20519;-76
2023/02/06 07:06:33;;;;;;;32.67;8.47;;;3.50;99.90;;;;;;5097154;28;20446;-76
2023/02/06 07:09:00;;;;;;;42.83;8.47;;;3.60;99.90;;;;;;5084931;28;20430;-78
2023/02/06 07:11:27;;;;;;;48.93;8.40;;;3.50;99.90;;;;;;5091234;28;20441;-77
2023/02/06 07:13:54;;;;;;;38.33;8.67;;;3.60;99.90;;;;;;5097455;28;20510;-77
2023/02/06 07:16:23;;;;;;;32.73;7.30;;;3.60;99.90;;;;;;5096208;28;20445;-79
2023/02/06 07:18:50;;;;;;;36.27;7.27;;;3.60;99.90;;;;;;5096764;28;20552;-77
2023/02/06 07:21:19;;;;;;;36.10;8.03;;;3.50;99.90;;;;;;5096361;28;20454;-76
2023/02/06 07:23:46;;;;;;;36.20;8.67;;;3.60;99.90;;;;;;5093299;28;20456;-79
2023/02/06 07:26:14;;;;;;;45.20;9.23;;;3.60;99.90;;;;;;5082045;28;20454;-77
2023/02/06 07:28:41;;;;;;;39.23;8.27;;;3.60;99.90;;;;;;5086284;28;20437;-79
2023/02/06 07:31:08;;;;;;;43.70;11.27;;;3.60;99.90;;;;;;5095074;28;20446;-79
2023/02/06 07:33:37;;;;;;;33.50;8.43;;;3.60;99.90;;;;;;5097978;28;20445;-76
2023/02/06 07:36:10;;;;;;;38.63;8.73;;;3.60;99.90;;;;;;5098022;28;20457;-77
2023/02/06 07:38:37;;;;;;;39.93;8.40;;;3.60;99.90;;;;;;5077033;28;20540;-89
2023/02/06 07:41:06;;;;;;;33.10;7.87;;;3.70;99.90;;;;;;5075616;28;20465;-85
2023/02/06 07:43:42;;;;;;;37.37;8.00;;;3.60;99.90;;;;;;5085773;28;20454;-87
2023/02/06 07:46:09;;;;;;;40.80;8.90;;;3.60;99.90;;;;;;5085922;28;20469;-85
2023/02/06 07:48:44;;;;;;;42.27;9.30;;;3.60;99.90;;;;;;5075608;28;20576;-88
2023/02/06 07:51:10;;;;;;;44.23;8.23;;;3.60;99.90;;;;;;5081756;28;20450;-85
2023/02/06 07:53:40;;;;;;;43.20;9.37;;;3.70;99.90;;;;;;5086649;28;20818;-85
2023/02/06 07:56:12;;;;;;;51.33;8.10;;;3.70;99.90;;;;;;5075810;28;20446;-79
2023/02/06 07:58:40;;;;;;;31.90;9.50;;;3.80;99.90;;;;;;5084083;28;20473;-87
2023/02/06 08:01:07;;;;;;;44.30;7.87;;;3.80;99.90;;;;;;5086077;28;20450;-77
2023/02/06 08:03:34;;;;;;;36.00;9.80;;;3.80;99.90;;;;;;5085529;28;20541;-81
2023/02/06 08:06:07;;;;;;;36.77;8.87;;;3.80;99.90;;;;;;5077644;28;20450;-79
2023/02/06 08:08:34;;;;;;;33.07;8.70;;;3.80;99.90;;;;;;5077179;28;20197;-81
2023/02/06 08:11:05;;;;;;;33.57;8.30;;;3.80;99.90;;;;;;5091365;28;20300;-78
2023/02/06 08:13:32;;;;;;;38.87;9.77;;;3.80;99.90;;;;;;5079472;28;20812;-78
2023/02/06 08:16:02;;;;;;;29.33;8.70;;;3.90;99.90;;;;;;5082000;28;20503;-78
2023/02/06 08:18:29;;;;;;;28.23;8.77;;;3.80;99.90;;;;;;5080698;28;20485;-79
2023/02/06 08:21:02;;;;;;;43.57;9.40;;;3.70;99.90;;;;;;5094641;28;20467;-80
2023/02/06 08:23:29;;;;;;;53.30;8.80;;;3.60;99.90;;;;;;5098136;28;20823;-84
2023/02/06 08:26:02;;;;;;;38.03;10.50;;;3.60;99.90;;;;;;5097345;28;20452;-83
2023/02/06 08:28:29;;;;;;;41.40;10.57;;;3.70;99.90;;;;;;5097342;28;20471;-80
2023/02/06 08:30:56;;;;;;;46.67;10.00;;;3.70;99.90;;;;;;5098470;28;20288;-79
2023/02/06 08:33:23;;;;;;;40.80;10.33;;;3.70;99.90;;;;;;5097642;28;20216;-81
2023/02/06 08:35:51;;;;;;;41.63;10.50;;;3.80;99.90;;;;;;5084247;28;20944;-84
2023/02/06 08:38:19;;;;;;;39.67;13.13;;;3.90;99.90;;;;;;5097678;28;20545;-81
2023/02/06 08:40:46;;;;;;;33.07;10.37;;;4.20;99.90;;;;;;5097149;28;20448;-79
2023/02/06 08:43:13;;;;;;;33.93;9.73;;;4.00;99.90;;;;;;5096981;28;20441;-83
2023/02/06 08:45:40;;;;;;;36.93;10.50;;;4.00;99.90;;;;;;5084595;28;20454;-79
2023/02/06 08:48:07;;;;;;;33.60;9.93;;;4.10;99.90;;;;;;5098305;28;20220;-82
2023/02/06 08:50:33;;;;;;;52.00;12.27;;;4.30;99.90;;;;;;5098489;28;20731;-79
2023/02/06 08:53:01;;;;;;;46.23;12.40;;;4.20;99.90;;;;;;5097440;28;20454;-86
2023/02/06 08:55:30;;;;;;;50.80;13.00;;;4.10;99.90;;;;;;5098035;28;20225;-89
2023/02/06 08:57:57;;;;;;;47.60;12.87;;;4.10;99.90;;;;;;5097016;28;20499;-85
2023/02/06 09:00:24;;;;;;;49.07;14.33;;;4.30;99.90;;;;;;5097703;28;20197;-87
2023/02/06 09:02:52;;;;;;;62.83;14.40;;;4.20;99.90;;;;;;5099553;28;20886;-83
2023/02/06 09:05:19;;;;;;;36.37;12.70;;;4.20;99.90;;;;;;5093368;28;20201;-79
2023/02/06 09:07:46;;;;;;;45.03;13.73;;;4.30;99.90;;;;;;5094445;28;20212;-79
2023/02/06 09:10:13;;;;;;;46.93;14.80;;;4.30;99.90;;;;;;5095170;28;20204;-85
2023/02/06 09:12:44;;;;;;;52.53;14.83;;;4.40;99.90;;;;;;5082879;28;20205;-79
2023/02/06 09:15:11;;;;;;;58.25;19.40;;;4.40;99.90;;;;;;5097157;28;20452;-76
2023/02/06 09:17:38;;;;;;;49.33;14.43;;;4.50;99.90;;;;;;5096803;28;20204;-82
2023/02/06 09:20:06;;;;;;;47.97;14.97;;;4.60;99.90;;;;;;5098764;28;20271;-77
2023/02/06 09:22:34;;;;;;;44.07;14.40;;;4.70;99.90;;;;;;5097935;28;20208;-80
2023/02/06 09:25:08;;;;;;;45.07;13.53;;;4.90;99.90;;;;;;5085061;28;20218;-82
2023/02/06 09:27:35;;;;;;;45.50;14.33;;;4.80;99.90;;;;;;5095801;28;20200;-81
2023/02/06 09:30:05;;;;;;;29.80;12.90;;;4.90;99.90;;;;;;5083675;28;20718;-81
2023/02/06 09:32:32;;;;;;;29.50;11.90;;;5.10;99.90;;;;;;5082709;28;20209;-79
2023/02/06 09:35:00;;;;;;;29.50;9.97;;;5.20;99.90;;;;;;5096894;28;20557;-77
2023/02/06 09:37:27;;;;;;;29.10;11.00;;;5.40;99.90;;;;;;5097084;28;20208;-86
2023/02/06 09:39:53;;;;;;;31.43;10.43;;;5.50;99.90;;;;;;5097532;28;20228;-91
2023/02/06 09:42:31;;;;;;;26.60;10.70;;;5.60;99.90;;;;;;5092999;28;20198;-90
2023/02/06 09:45:05;;;;;;;34.55;14.10;;;5.60;99.90;;;;;;5087432;28;20426;-88
2023/02/06 09:47:35;;;;;;;27.97;12.00;;;5.80;99.90;;;;;;5098451;28;20655;-78
2023/02/06 09:50:06;;;;;;;28.27;11.03;;;5.80;99.90;;;;;;5096202;28;20213;-72
2023/02/06 09:53:05;;;;;;;28.27;9.97;;;5.80;99.90;;;;;;5095616;28;20205;-78
2023/02/06 09:55:40;;;;;;;23.73;10.50;;;6.00;99.90;;;;;;5094428;28;20208;-76
2023/02/06 09:58:18;;;;;;;23.20;9.77;;;6.20;99.90;;;;;;5094652;28;20247;-73
2023/02/06 10:00:50;;;;;;;23.83;10.47;;;6.30;99.90;;;;;;5095442;28;20201;-75
2023/02/06 10:03:27;;;;;;;20.63;9.50;;;6.40;99.90;;;;;;5094894;28;20201;-77
2023/02/06 10:06:06;;;;;;;25.07;9.37;;;6.40;99.90;;;;;;5096785;28;20367;-77
2023/02/06 10:08:38;;;;;;;23.40;9.13;;;6.40;99.90;;;;;;5094660;28;20208;-76
2023/02/06 10:11:13;;;;;;;26.33;10.37;;;6.30;99.90;;;;;;5094847;28;20197;-76
2023/02/06 10:13:48;;;;;;;23.73;9.80;;;6.30;99.90;;;;;;5094194;28;20196;-73
2023/02/06 10:16:30;;;;;;;20.50;9.70;;;6.40;99.90;;;;;;5081466;28;20202;-72
2023/02/06 10:19:02;;;;;;;20.10;9.43;;;6.40;99.90;;;;;;5073092;28;20586;-74
2023/02/06 10:21:35;;;;;;;22.67;9.40;;;6.50;99.90;;;;;;5074202;28;20219;-76
2023/02/06 10:24:08;;;;;;;17.53;9.37;;;6.50;99.90;;;;;;5073775;28;20259;-77
2023/02/06 10:26:39;;;;;;;26.90;10.63;;;6.60;99.90;;;;;;5073680;28;20775;-87
2023/02/06 10:29:07;;;;;;;29.37;9.73;;;6.60;99.90;;;;;;5088341;28;20576;-76
2023/02/06 10:31:59;;;;;;;21.30;9.87;;;6.50;99.90;;;;;;5094321;28;20204;-90
2023/02/06 10:34:46;;;;;;;22.53;11.03;;;6.50;99.90;;;;;;5086605;28;20201;-89
2023/02/06 10:37:25;;;;;;;27.00;11.37;;;6.50;99.90;;;;;;5093960;28;20679;-73
2023/02/06 10:40:14;;;;;;;27.57;11.57;;;6.60;99.90;;;;;;5093790;28;20235;-76
2023/02/06 10:42:49;;;;;;;28.13;11.63;;;6.50;99.90;;;;;;5093495;28;20198;-75
2023/02/06 10:45:30;;;;;;;27.67;11.53;;;6.50;99.90;;;;;;5093997;28;20193;-75
2023/02/06 10:48:04;;;;;;;32.05;13.95;;;6.70;99.90;;;;;;5093717;28;20430;-73
2023/02/06 10:50:34;;;;;;;32.43;12.50;;;6.50;99.90;;;;;;5094398;28;20197;-79
2023/02/06 10:53:06;;;;;;;30.73;10.80;;;6.40;99.90;;;;;;5093735;28;20208;-77
2023/02/06 10:55:41;;;;;;;37.83;11.50;;;6.50;99.90;;;;;;5093941;28;20576;-80
2023/02/06 10:58:15;;;;;;;32.97;10.57;;;6.70;99.90;;;;;;5093878;28;20207;-82
2023/02/06 11:00:45;;;;;;;24.87;10.20;;;6.80;99.90;;;;;;5094233;28;20554;-82
2023/02/06 11:03:17;;;;;;;25.27;10.90;;;7.10;99.90;;;;;;5093576;28;20682;-76
2023/02/06 11:05:44;;;;;;;25.73;10.37;;;7.40;99.90;;;;;;5093325;28;20197;-77
2023/02/06 11:08:18;;;;;;;22.47;10.27;;;7.50;99.90;;;;;;5093697;28;20205;-76
2023/02/06 11:10:45;;;;;;;31.93;11.53;;;7.30;99.90;;;;;;5093019;28;20901;-79
2023/02/06 11:13:21;;;;;;;21.97;8.23;;;7.00;99.90;;;;;;5094280;28;20441;-76
2023/02/06 11:15:56;;;;;;;38.87;8.60;;;6.80;99.90;;;;;;5093807;28;20200;-88
2023/02/06 11:18:30;;;;;;;29.13;8.50;;;7.00;99.90;;;;;;5093701;28;20227;-76
2023/02/06 11:21:01;;;;;;;30.20;9.80;;;6.70;99.90;;;;;;5092553;28;20208;-78
2023/02/06 11:23:32;;;;;;;24.57;10.20;;;6.90;99.90;;;;;;5093774;28;20674;-77
2023/02/06 11:26:07;;;;;;;32.37;11.57;;;7.10;99.90;;;;;;5093162;28;20568;-89
2023/02/06 11:28:38;;;;;;;25.83;10.87;;;7.20;99.90;;;;;;5092951;28;20215;-85
2023/02/06 11:31:08;;;;;;;26.80;9.73;;;7.50;99.90;;;;;;5090582;28;20200;-76
2023/02/06 11:33:49;;;;;;;32.27;11.97;;;7.70;99.90;;;;;;5092832;28;20208;-77
2023/02/06 11:36:26;;;;;;;30.50;11.63;;;8.00;99.90;;;;;;5092828;28;20690;-77
2023/02/06 11:38:58;;;;;;;27.10;10.60;;;8.10;99.90;;;;;;5093109;28;20236;-78
2023/02/06 11:41:25;;;;;;;32.10;10.10;;;7.90;99.90;;;;;;5093188;28;20212;-75
2023/02/06 11:43:53;;;;;;;35.40;11.27;;;8.00;99.90;;;;;;5093380;28;20208;-78
2023/02/06 11:46:24;;;;;;;27.63;10.20;;;8.30;99.90;;;;;;5092952;28;20197;-81
2023/02/06 11:49:07;;;;;;;27.50;11.03;;;8.50;99.90;;;;;;5092811;28;20197;-75
2023/02/06 11:51:52;;;;;;;28.27;9.77;;;8.40;99.90;;;;;;5092415;28;20201;-78
2023/02/06 11:54:32;;;;;;;33.87;11.17;;;8.40;99.90;;;;;;5092798;28;20688;-84
2023/02/06 11:57:06;;;;;;;28.30;9.83;;;8.60;99.90;;;;;;5093410;28;20208;-76
2023/02/06 11:59:36;;;;;;;35.33;10.60;;;8.50;99.90;;;;;;5080787;28;20309;-79
2023/02/06 12:02:22;;;;;;;30.03;8.03;;;8.60;99.90;;;;;;5092835;28;20216;-74
2023/02/06 12:04:50;;;;;;;24.33;8.93;;;8.70;99.90;;;;;;5076614;28;20276;-78
2023/02/06 12:07:27;;;;;;;25.33;8.17;;;8.30;99.90;;;;;;5093154;28;20197;-76
2023/02/06 12:09:55;;;;;;;28.50;9.30;;;8.40;99.90;;;;;;5093063;28;20197;-83
2023/02/06 12:12:28;;;;;;;31.40;9.43;;;8.70;99.90;;;;;;5079910;28;20202;-75
2023/02/06 12:14:59;;;;;;;24.30;6.60;;;8.80;99.90;;;;;;5093017;28;20244;-80
2023/02/06 12:17:31;;;;;;;32.77;8.07;;;8.60;99.90;;;;;;5092132;28;20530;-74
2023/02/06 12:20:05;;;;;;;29.50;6.73;;;8.20;99.90;;;;;;5092686;28;20236;-74
2023/02/06 12:22:36;;;;;;;27.53;8.03;;;8.00;99.90;;;;;;5092999;28;20205;-79
2023/02/06 12:25:05;;;;;;;18.10;7.40;;;8.30;99.90;;;;;;5092715;28;20201;-74
2023/02/06 12:27:37;;;;;;;26.50;8.47;;;7.90;99.90;;;;;;5092726;28;20205;-74
2023/02/06 12:30:16;;;;;;;28.77;7.50;;;8.10;99.90;;;;;;5080560;28;20668;-74
2023/02/06 12:32:49;;;;;;;29.57;7.53;;;8.10;99.90;;;;;;5078614;28;20212;-75
2023/02/06 12:35:21;;;;;;;33.67;8.93;;;8.30;99.90;;;;;;5073611;28;20213;-81
2023/02/06 12:37:54;;;;;;;29.37;6.83;;;8.50;99.90;;;;;;5073155;28;20200;-73
2023/02/06 12:40:37;;;;;;;24.40;8.33;;;8.60;99.90;;;;;;5074373;28;20229;-73
2023/02/06 12:43:11;;;;;;;20.80;7.67;;;8.70;99.90;;;;;;5071953;28;20552;-91
2023/02/06 12:45:46;;;;;;;26.70;7.50;;;8.60;99.90;;;;;;5090987;28;20208;-87
2023/02/06 12:48:20;;;;;;;23.83;7.30;;;8.80;99.90;;;;;;5080148;28;20205;-74
2023/02/06 12:50:55;;;;;;;24.90;6.57;;;8.70;99.90;;;;;;5095055;28;20213;-73
2023/02/06 12:53:29;;;;;;;32.43;6.93;;;9.00;99.90;;;;;;5096654;28;20232;-73
2023/02/06 12:56:04;;;;;;;25.53;6.07;;;8.50;99.90;;;;;;5096023;28;20204;-73
2023/02/06 12:58:48;;;;;;;20.20;6.93;;;8.40;99.90;;;;;;5096709;28;20203;-81
2023/02/06 13:01:36;;;;;;;25.70;6.77;;;8.30;99.90;;;;;;5089409;28;20217;-73
2023/02/06 13:04:07;;;;;;;23.63;6.77;;;8.40;99.90;;;;;;5094619;28;20212;-76